HYDRA01 EGQS-EGQS

Flight info

Callsign HYDRA01
Flight time 1h 21m
Altitude 28000
Route OPR
Aircraft P8/M-SDE2E3FGHIRWXY/LB1

Departure

Time 2026-05-03 22:09
Airport RAF Lossiemouth (EGQS)

Arrival

Time 2026-05-03 23:30
Airport RAF Lossiemouth (EGQS)
Time Latitude Longitude Altitude Speed Heading
2026-05-03 21:24 57.71207 -3.33511 44 ft 0 kts 139°
2026-05-03 21:57 57.71199 -3.33499 44 ft 5 kts 138°
2026-05-03 21:58 57.71147 -3.33491 44 ft 12 kts 207°
2026-05-03 21:58 57.71077 -3.33622 44 ft 15 kts 228°
2026-05-03 21:58 57.71007 -3.33766 44 ft 15 kts 228°
2026-05-03 21:58 57.70944 -3.33912 44 ft 14 kts 232°
2026-05-03 21:59 57.70881 -3.34050 44 ft 14 kts 229°
2026-05-03 21:59 57.70820 -3.34177 45 ft 13 kts 230°
2026-05-03 21:59 57.70761 -3.34302 45 ft 13 kts 227°
2026-05-03 21:59 57.70696 -3.34411 44 ft 12 kts 218°
2026-05-03 22:00 57.70629 -3.34509 44 ft 12 kts 218°
2026-05-03 22:00 57.70564 -3.34604 44 ft 12 kts 218°
2026-05-03 22:00 57.70501 -3.34697 44 ft 11 kts 218°
2026-05-03 22:00 57.70440 -3.34788 44 ft 11 kts 218°
2026-05-03 22:01 57.70371 -3.34888 44 ft 16 kts 218°
2026-05-03 22:01 57.70258 -3.35051 44 ft 24 kts 219°
2026-05-03 22:01 57.70131 -3.35236 44 ft 23 kts 218°
2026-05-03 22:01 57.70014 -3.35407 44 ft 16 kts 218°
2026-05-03 22:02 57.69941 -3.35482 41 ft 10 kts 193°
2026-05-03 22:02 57.69902 -3.35481 44 ft 2 kts 167°
2026-05-03 22:02 57.69886 -3.35469 43 ft 2 kts 155°
2026-05-03 22:02 57.69882 -3.35465 44 ft 0 kts 153°
2026-05-03 22:08 57.69877 -3.35461 44 ft 5 kts 153°
2026-05-03 22:08 57.69826 -3.35345 43 ft 16 kts 89°
2026-05-03 22:08 57.69908 -3.35142 43 ft 33 kts 44°
2026-05-03 22:09 57.70267 -3.34502 44 ft 108 kts 44°
2026-05-03 22:09 57.70973 -3.33244 76 ft 167 kts 44°
2026-05-03 22:09 57.71848 -3.31654 768 ft 176 kts 46°
2026-05-03 22:10 57.73584 -3.28243 2409 ft 192 kts 44°
2026-05-03 22:10 57.74535 -3.26407 3131 ft 198 kts 43°
2026-05-03 22:10 57.75536 -3.24532 3695 ft 213 kts 42°
2026-05-03 22:10 57.76623 -3.22481 4037 ft 232 kts 44°
2026-05-03 22:11 57.77808 -3.20209 4373 ft 251 kts 43°
2026-05-03 22:11 57.79052 -3.17865 5162 ft 254 kts 41°
2026-05-03 22:11 57.80325 -3.15564 6018 ft 256 kts 41°
2026-05-03 22:11 57.81621 -3.13239 6797 ft 259 kts 41°
2026-05-03 22:12 57.82930 -3.10889 7558 ft 262 kts 41°
2026-05-03 22:12 57.84225 -3.08557 8306 ft 265 kts 41°
2026-05-03 22:12 57.85558 -3.06150 9077 ft 268 kts 41°
2026-05-03 22:12 57.86911 -3.03703 9842 ft 271 kts 41°
2026-05-03 22:13 57.88279 -3.01223 10553 ft 274 kts 41°
2026-05-03 22:13 57.89672 -2.98697 11047 ft 288 kts 41°
2026-05-03 22:13 57.91181 -2.95961 11237 ft 312 kts 41°
2026-05-03 22:13 57.92780 -2.93050 11696 ft 325 kts 41°
2026-05-03 22:14 57.94418 -2.90058 12392 ft 329 kts 41°
2026-05-03 22:14 57.96071 -2.87036 13155 ft 332 kts 41°
2026-05-03 22:14 57.97739 -2.83985 13892 ft 335 kts 41°
2026-05-03 22:14 57.99423 -2.80902 14544 ft 339 kts 41°
2026-05-03 22:15 58.01222 -2.78022 15163 ft 340 kts 26°
2026-05-03 22:15 58.03423 -2.76797 15770 ft 335 kts 358°
2026-05-03 22:15 58.05731 -2.77294 15994 ft 335 kts 345°
2026-05-03 22:15 58.07999 -2.78259 16005 ft 332 kts 345°
2026-05-03 22:16 58.10263 -2.79121 16000 ft 333 kts 348°
2026-05-03 22:16 58.12571 -2.79654 16013 ft 334 kts 352°
2026-05-03 22:16 58.14888 -2.80058 16014 ft 334 kts 352°
2026-05-03 22:16 58.17208 -2.80452 16023 ft 335 kts 351°
2026-05-03 22:17 58.19536 -2.80822 16014 ft 335 kts 351°
2026-05-03 22:17 58.21868 -2.81215 16013 ft 336 kts 351°
2026-05-03 22:17 58.24158 -2.81713 16006 ft 336 kts 350°
2026-05-03 22:17 58.26468 -2.82204 16006 ft 336 kts 351°
2026-05-03 22:18 58.28792 -2.82676 16010 ft 336 kts 351°
2026-05-03 22:18 58.31117 -2.83142 16009 ft 336 kts 351°
2026-05-03 22:18 58.33481 -2.83617 16024 ft 347 kts 351°
2026-05-03 22:18 58.35825 -2.84672 16003 ft 344 kts 334°
2026-05-03 22:19 58.38081 -2.86127 15989 ft 346 kts 348°
2026-05-03 22:19 58.40489 -2.86515 16021 ft 348 kts 354°
2026-05-03 22:19 58.42917 -2.86645 16027 ft 348 kts 355°
2026-05-03 22:19 58.45336 -2.86722 16042 ft 348 kts 355°
2026-05-03 22:20 58.47762 -2.86749 16013 ft 349 kts 356°
2026-05-03 22:20 58.50196 -2.86757 16013 ft 349 kts 355°
2026-05-03 22:20 58.52585 -2.87236 16023 ft 344 kts 345°
2026-05-03 22:20 58.54892 -2.88207 16017 ft 343 kts 343°
2026-05-03 22:21 58.57209 -2.89280 16016 ft 343 kts 342°
2026-05-03 22:21 58.59526 -2.90373 16018 ft 343 kts 342°
2026-05-03 22:21 58.61844 -2.91477 16019 ft 343 kts 342°
2026-05-03 22:21 58.64163 -2.92589 16013 ft 343 kts 342°
2026-05-03 22:22 58.66476 -2.93701 16013 ft 343 kts 342°
2026-05-03 22:22 58.68794 -2.94819 16015 ft 343 kts 342°
2026-05-03 22:22 58.71115 -2.95939 16003 ft 343 kts 342°
2026-05-03 22:22 58.73433 -2.97061 15995 ft 343 kts 342°
2026-05-03 22:23 58.75750 -2.98184 16005 ft 344 kts 342°
2026-05-03 22:23 58.78074 -2.99311 15986 ft 344 kts 342°
2026-05-03 22:23 58.80392 -3.00491 15991 ft 342 kts 336°
2026-05-03 22:23 58.82347 -3.02803 15997 ft 332 kts 311°
2026-05-03 22:24 58.83510 -3.06572 15987 ft 327 kts 284°
2026-05-03 22:24 58.83621 -3.10905 16015 ft 326 kts 262°
2026-05-03 22:24 58.83202 -3.15191 16000 ft 327 kts 259°
2026-05-03 22:24 58.82798 -3.19522 15992 ft 328 kts 263°
2026-05-03 22:25 58.82503 -3.23879 15999 ft 328 kts 264°
2026-05-03 22:25 58.82231 -3.28176 15923 ft 316 kts 264°
2026-05-03 22:25 58.81963 -3.32320 15853 ft 306 kts 264°
2026-05-03 22:25 58.81694 -3.36345 15611 ft 300 kts 263°
2026-05-03 22:26 58.81422 -3.40323 15265 ft 299 kts 263°
2026-05-03 22:26 58.81145 -3.44293 14900 ft 298 kts 263°
2026-05-03 22:26 58.80865 -3.48258 14561 ft 297 kts 263°
2026-05-03 22:26 58.80586 -3.52188 14230 ft 295 kts 263°
2026-05-03 22:27 58.80309 -3.56045 13957 ft 290 kts 263°
2026-05-03 22:27 58.80036 -3.59822 13770 ft 282 kts 263°
2026-05-03 22:27 58.79781 -3.63544 13468 ft 279 kts 266°
2026-05-03 22:27 58.79767 -3.67276 12977 ft 281 kts 273°
2026-05-03 22:28 58.79858 -3.71095 12258 ft 292 kts 273°
2026-05-03 22:28 58.79944 -3.74989 11519 ft 303 kts 272°
2026-05-03 22:28 58.80087 -3.79054 10762 ft 305 kts 277°
2026-05-03 22:28 58.80178 -3.80427 10511 ft 305 kts 278°
2026-05-03 22:29 58.80301 -3.82104 10215 ft 305 kts 278°
2026-05-03 22:29 58.80476 -3.84367 9803 ft 305 kts 278°
2026-05-03 22:30 58.80514 -3.84861 9703 ft 305 kts 278°
2026-05-03 22:30 58.80714 -3.87478 9181 ft 305 kts 278°
2026-05-03 22:30 58.80997 -3.91388 8418 ft 305 kts 277°
2026-05-03 22:30 58.81275 -3.95394 7662 ft 305 kts 277°
2026-05-03 22:31 58.81527 -3.99107 6961 ft 304 kts 278°
2026-05-03 22:31 58.82103 -4.03017 6176 ft 305 kts 297°
2026-05-03 22:31 58.83230 -4.06429 5438 ft 304 kts 302°
2026-05-03 22:31 58.84385 -4.09838 4616 ft 304 kts 301°
2026-05-03 22:32 58.85544 -4.13324 3423 ft 314 kts 301°
2026-05-03 22:32 58.86725 -4.16904 2230 ft 321 kts 302°
2026-05-03 22:32 58.88017 -4.20422 1380 ft 318 kts 314°
2026-05-03 22:32 58.89735 -4.22870 1163 ft 296 kts 331°
2026-05-03 22:33 58.91517 -4.24411 1065 ft 267 kts 337°
2026-05-03 22:33 58.93156 -4.25637 992 ft 238 kts 338°
2026-05-03 22:33 58.93762 -4.26091 991 ft 225 kts 337°
2026-05-03 22:34 58.94206 -4.26427 995 ft 216 kts 337°
2026-05-03 22:34 58.95528 -4.27440 978 ft 193 kts 336°
2026-05-03 22:34 58.96726 -4.28301 948 ft 180 kts 339°
2026-05-03 22:35 58.97926 -4.28834 877 ft 177 kts 350°
2026-05-03 22:35 58.99138 -4.29080 883 ft 175 kts 349°
2026-05-03 22:35 59.00362 -4.29425 829 ft 181 kts 347°
2026-05-03 22:35 59.01604 -4.29786 742 ft 180 kts 347°
2026-05-03 22:36 59.02835 -4.30173 642 ft 179 kts 348°
2026-05-03 22:36 59.04038 -4.30619 765 ft 172 kts 337°
2026-05-03 22:36 59.05027 -4.31772 1039 ft 166 kts 311°
2026-05-03 22:36 59.05749 -4.33598 1119 ft 172 kts 300°
2026-05-03 22:37 59.06165 -4.35697 1159 ft 172 kts 269°
2026-05-03 22:37 59.05751 -4.37845 1035 ft 177 kts 228°
2026-05-03 22:37 59.04613 -4.38598 873 ft 185 kts 176°
2026-05-03 22:37 59.03547 -4.37311 751 ft 191 kts 115°
2026-05-03 22:38 59.03363 -4.34776 669 ft 192 kts 91°
2026-05-03 22:38 59.03334 -4.32119 468 ft 199 kts 91°
2026-05-03 22:38 59.03328 -4.29510 531 ft 188 kts 90°
2026-05-03 22:38 59.02975 -4.27140 652 ft 187 kts 136°
2026-05-03 22:39 59.01854 -4.26171 1322 ft 179 kts 189°
2026-05-03 22:39 59.00808 -4.27298 1895 ft 173 kts 239°
2026-05-03 22:39 59.00566 -4.29482 2379 ft 173 kts 274°
2026-05-03 22:39 59.00631 -4.31869 2600 ft 176 kts 273°
2026-05-03 22:40 59.00691 -4.34319 2427 ft 182 kts 272°
2026-05-03 22:40 59.00725 -4.36713 2237 ft 174 kts 273°
2026-05-03 22:40 59.00802 -4.39023 1983 ft 170 kts 282°
2026-05-03 22:40 59.01368 -4.40885 2093 ft 155 kts 307°
2026-05-03 22:41 59.02227 -4.42495 1995 ft 183 kts 330°
2026-05-03 22:41 59.03471 -4.42598 1975 ft 187 kts 21°
2026-05-03 22:41 59.04590 -4.41300 1969 ft 189 kts 27°
2026-05-03 22:41 59.05715 -4.39975 1972 ft 189 kts 28°
2026-05-03 22:42 59.06629 -4.38202 1946 ft 194 kts 66°
2026-05-03 22:42 59.06693 -4.35634 1988 ft 192 kts 97°
2026-05-03 22:42 59.06464 -4.33032 1965 ft 198 kts 110°
2026-05-03 22:42 59.05606 -4.31071 1962 ft 190 kts 160°
2026-05-03 22:43 59.04387 -4.30316 1978 ft 193 kts 168°
2026-05-03 22:43 59.03216 -4.29716 1958 ft 189 kts 177°
2026-05-03 22:43 59.02033 -4.30305 1964 ft 173 kts 222°
2026-05-03 22:43 59.01126 -4.31883 1967 ft 178 kts 227°
2026-05-03 22:44 59.00545 -4.33897 1971 ft 170 kts 264°
2026-05-03 22:44 59.00555 -4.36186 1969 ft 171 kts 277°
2026-05-03 22:44 59.01096 -4.38185 1957 ft 173 kts 323°
2026-05-03 22:44 59.02254 -4.38603 1963 ft 182 kts 13°
2026-05-03 22:45 59.03223 -4.37053 1961 ft 190 kts 64°
2026-05-03 22:45 59.03384 -4.34494 1964 ft 198 kts 104°
2026-05-03 22:45 59.02624 -4.32383 1957 ft 192 kts 153°
2026-05-03 22:45 59.01388 -4.32029 1948 ft 181 kts 202°
2026-05-03 22:46 59.00511 -4.33544 1964 ft 169 kts 253°
2026-05-03 22:46 59.00559 -4.35756 1980 ft 167 kts 285°
2026-05-03 22:46 59.00884 -4.37954 1978 ft 171 kts 284°
2026-05-03 22:46 59.01202 -4.40161 1968 ft 172 kts 285°
2026-05-03 22:47 59.01538 -4.42388 1966 ft 173 kts 289°
2026-05-03 22:47 59.02313 -4.44117 1957 ft 177 kts 335°
2026-05-03 22:47 59.03534 -4.44087 1975 ft 182 kts 15°
2026-05-03 22:47 59.04742 -4.43295 1980 ft 184 kts 15°
2026-05-03 22:48 59.05903 -4.42159 1940 ft 193 kts 45°
2026-05-03 22:48 59.06366 -4.39763 1966 ft 195 kts 94°
2026-05-03 22:48 59.05901 -4.37323 1968 ft 195 kts 128°
2026-05-03 22:48 59.04830 -4.35948 1971 ft 187 kts 173°
2026-05-03 22:49 59.03618 -4.36395 1954 ft 177 kts 222°
2026-05-03 22:49 59.03079 -4.38377 1964 ft 169 kts 271°
2026-05-03 22:49 59.03312 -4.40615 1979 ft 171 kts 281°
2026-05-03 22:49 59.03540 -4.42909 1975 ft 174 kts 281°
2026-05-03 22:50 59.03774 -4.45228 1968 ft 175 kts 279°
2026-05-03 22:50 59.03993 -4.47558 1954 ft 175 kts 281°
2026-05-03 22:50 59.04230 -4.49878 1966 ft 174 kts 282°
2026-05-03 22:50 59.04473 -4.52182 1949 ft 174 kts 282°
2026-05-03 22:51 59.04977 -4.54256 1946 ft 172 kts 319°
2026-05-03 22:51 59.06085 -4.54834 1960 ft 176 kts 10°
2026-05-03 22:51 59.07072 -4.53376 1969 ft 190 kts 62°
2026-05-03 22:51 59.07205 -4.50835 1968 ft 198 kts 102°
2026-05-03 22:52 59.06910 -4.48228 1967 ft 198 kts 102°
2026-05-03 22:52 59.06612 -4.45633 1964 ft 196 kts 110°
2026-05-03 22:52 59.05775 -4.43709 1956 ft 185 kts 160°
2026-05-03 22:52 59.04556 -4.43615 1968 ft 179 kts 209°
2026-05-03 22:53 59.03753 -4.45322 1963 ft 174 kts 256°
2026-05-03 22:53 59.03829 -4.47600 1978 ft 171 kts 283°
2026-05-03 22:53 59.04137 -4.49830 2012 ft 171 kts 301°
2026-05-03 22:53 59.05145 -4.50946 1982 ft 179 kts 360°
2026-05-03 22:54 59.06203 -4.49696 1947 ft 190 kts 59°
2026-05-03 22:54 59.06301 -4.47192 1909 ft 197 kts 115°
2026-05-03 22:54 59.05321 -4.45504 1861 ft 190 kts 170°
2026-05-03 22:54 59.04149 -4.46056 1790 ft 175 kts 234°
2026-05-03 22:55 59.03927 -4.48219 1797 ft 169 kts 280°
2026-05-03 22:55 59.04172 -4.50429 1983 ft 169 kts 282°
2026-05-03 22:55 59.04391 -4.52722 1992 ft 173 kts 281°
2026-05-03 22:55 59.04609 -4.55000 1997 ft 169 kts 282°
2026-05-03 22:56 59.04837 -4.57193 2006 ft 168 kts 282°
2026-05-03 22:56 59.05299 -4.59259 1986 ft 171 kts 316°
2026-05-03 22:56 59.06415 -4.59951 2010 ft 179 kts
2026-05-03 22:56 59.07583 -4.59047 2027 ft 182 kts 22°
2026-05-03 22:57 59.08747 -4.58012 2008 ft 185 kts 21°
2026-05-03 22:57 59.09929 -4.56973 2007 ft 186 kts 20°
2026-05-03 22:57 59.10924 -4.55359 1976 ft 194 kts 62°
2026-05-03 22:57 59.11028 -4.52821 1984 ft 190 kts 112°
2026-05-03 22:58 59.10136 -4.51077 2016 ft 188 kts 165°
2026-05-03 22:58 59.08893 -4.51139 2025 ft 182 kts 201°
2026-05-03 22:58 59.07662 -4.51854 2008 ft 186 kts 199°
2026-05-03 22:58 59.06416 -4.52483 1990 ft 185 kts 190°
2026-05-03 22:59 59.05202 -4.51805 2009 ft 191 kts 139°
2026-05-03 22:59 59.04325 -4.49773 2005 ft 201 kts 129°
2026-05-03 22:59 59.03472 -4.47658 2004 ft 197 kts 130°
2026-05-03 22:59 59.02840 -4.45370 1978 ft 193 kts 95°
2026-05-03 23:00 59.03182 -4.42983 2002 ft 188 kts 45°
2026-05-03 23:00 59.04321 -4.41842 1835 ft 188 kts 358°
2026-05-03 23:00 59.05452 -4.42774 1343 ft 184 kts 303°
2026-05-03 23:00 59.05712 -4.45143 838 ft 182 kts 263°
2026-05-03 23:01 59.05601 -4.47455 739 ft 165 kts 273°
2026-05-03 23:01 59.05810 -4.49576 527 ft 155 kts 288°
2026-05-03 23:01 59.06103 -4.51612 568 ft 169 kts 285°
2026-05-03 23:01 59.06411 -4.53800 1198 ft 168 kts 284°
2026-05-03 23:02 59.06749 -4.56103 1772 ft 191 kts 287°
2026-05-03 23:02 59.07153 -4.58705 1923 ft 206 kts 287°
2026-05-03 23:02 59.07564 -4.61344 1948 ft 202 kts 287°
2026-05-03 23:02 59.07984 -4.63952 1992 ft 207 kts 287°
2026-05-03 23:03 59.08577 -4.66647 2271 ft 226 kts 309°
2026-05-03 23:03 59.09925 -4.68233 2926 ft 237 kts 348°
2026-05-03 23:03 59.11570 -4.67780 3696 ft 248 kts 25°
2026-05-03 23:03 59.12806 -4.65464 4449 ft 258 kts 59°
2026-05-03 23:04 59.13203 -4.62032 5145 ft 268 kts 94°
2026-05-03 23:04 59.12903 -4.58414 5827 ft 275 kts 102°
2026-05-03 23:04 59.12473 -4.54724 6479 ft 282 kts 103°
2026-05-03 23:04 59.12029 -4.50969 7105 ft 290 kts 103°
2026-05-03 23:05 59.11575 -4.47083 7707 ft 298 kts 103°
2026-05-03 23:05 59.11126 -4.43113 8394 ft 303 kts 102°
2026-05-03 23:05 59.10684 -4.39080 9137 ft 306 kts 102°
2026-05-03 23:05 59.10249 -4.35002 9863 ft 310 kts 101°
2026-05-03 23:06 59.09960 -4.32272 10292 ft 312 kts 101°
2026-05-03 23:06 59.09520 -4.28118 10945 ft 316 kts 101°
2026-05-03 23:06 59.09071 -4.23912 11608 ft 319 kts 101°
2026-05-03 23:06 59.08462 -4.18301 12472 ft 324 kts 104°
2026-05-03 23:07 59.07526 -4.14345 13089 ft 325 kts 128°
2026-05-03 23:07 59.06627 -4.12012 13554 ft 326 kts 129°
2026-05-03 23:07 59.05253 -4.08454 14161 ft 330 kts 129°
2026-05-03 23:07 59.03874 -4.04829 14575 ft 341 kts 129°
2026-05-03 23:08 59.02214 -4.01435 14783 ft 351 kts 146°
2026-05-03 23:08 59.00218 -3.98646 14999 ft 355 kts 148°
2026-05-03 23:08 58.98197 -3.95889 14990 ft 354 kts 148°
2026-05-03 23:08 58.96202 -3.93112 14975 ft 352 kts 147°
2026-05-03 23:09 58.94223 -3.90307 14999 ft 352 kts 147°
2026-05-03 23:09 58.92249 -3.87495 15001 ft 353 kts 146°
2026-05-03 23:09 58.90380 -3.84485 14999 ft 356 kts 138°
2026-05-03 23:09 58.88797 -3.81336 15011 ft 357 kts 135°
2026-05-03 23:10 58.87108 -3.77800 15006 ft 358 kts 135°
2026-05-03 23:10 58.85410 -3.74278 15001 ft 358 kts 136°
2026-05-03 23:10 58.83694 -3.70805 15001 ft 357 kts 136°
2026-05-03 23:10 58.81966 -3.67370 15002 ft 357 kts 137°
2026-05-03 23:11 58.80231 -3.63949 15002 ft 357 kts 137°
2026-05-03 23:11 58.78370 -3.60835 14998 ft 353 kts 147°
2026-05-03 23:11 58.76352 -3.58161 15010 ft 352 kts 150°
2026-05-03 23:11 58.74301 -3.55604 15001 ft 351 kts 150°
2026-05-03 23:12 58.72254 -3.53051 14997 ft 351 kts 150°
2026-05-03 23:12 58.70236 -3.50491 14973 ft 339 kts 149°
2026-05-03 23:12 58.68334 -3.48038 14941 ft 320 kts 149°
2026-05-03 23:12 58.66516 -3.45679 14508 ft 315 kts 149°
2026-05-03 23:13 58.64673 -3.43288 13768 ft 323 kts 149°
2026-05-03 23:13 58.62785 -3.40835 12913 ft 333 kts 149°
2026-05-03 23:13 58.60826 -3.38292 11791 ft 347 kts 149°
2026-05-03 23:13 58.58801 -3.35663 10702 ft 357 kts 148°
2026-05-03 23:14 58.56866 -3.32605 9809 ft 362 kts 137°
2026-05-03 23:14 58.55138 -3.29080 8739 ft 366 kts 134°
2026-05-03 23:14 58.53472 -3.25620 7762 ft 350 kts 135°
2026-05-03 23:14 58.51815 -3.22259 6396 ft 347 kts 135°
2026-05-03 23:15 58.50192 -3.18794 4612 ft 351 kts 133°
2026-05-03 23:15 58.48626 -3.15337 3937 ft 323 kts 133°
2026-05-03 23:15 58.47279 -3.12499 4128 ft 299 kts 141°
2026-05-03 23:15 58.45534 -3.10535 4284 ft 292 kts 159°
2026-05-03 23:16 58.43699 -3.08559 4383 ft 311 kts 148°
2026-05-03 23:16 58.41880 -3.06299 4537 ft 315 kts 152°
2026-05-03 23:16 58.39899 -3.04935 5314 ft 309 kts 172°
2026-05-03 23:16 58.38405 -3.04522 6068 ft 307 kts 175°
2026-05-03 23:17 58.36277 -3.04024 7016 ft 309 kts 175°
2026-05-03 23:17 58.34157 -3.03496 7828 ft 314 kts 175°
2026-05-03 23:17 58.31983 -3.03593 8626 ft 313 kts 198°
2026-05-03 23:17 58.29943 -3.05009 9537 ft 313 kts 205°
2026-05-03 23:18 58.27908 -3.06538 10344 ft 317 kts 205°
2026-05-03 23:18 58.25839 -3.08083 11113 ft 321 kts 205°
2026-05-03 23:18 58.23747 -3.09642 11908 ft 326 kts 205°
2026-05-03 23:18 58.21637 -3.11282 12629 ft 330 kts 207°
2026-05-03 23:19 58.19521 -3.12956 12943 ft 329 kts 206°
2026-05-03 23:19 58.17413 -3.14700 12979 ft 332 kts 208°
2026-05-03 23:19 58.15314 -3.16562 12987 ft 333 kts 208°
2026-05-03 23:19 58.13210 -3.18424 12988 ft 334 kts 208°
2026-05-03 23:20 58.11101 -3.20279 13004 ft 335 kts 208°
2026-05-03 23:20 58.08986 -3.22135 13007 ft 335 kts 208°
2026-05-03 23:20 58.06865 -3.23994 13004 ft 335 kts 208°
2026-05-03 23:20 58.04750 -3.25845 13001 ft 336 kts 208°
2026-05-03 23:21 58.02627 -3.27702 12988 ft 331 kts 208°
2026-05-03 23:21 58.00575 -3.29488 12644 ft 322 kts 208°
2026-05-03 23:21 57.98598 -3.31367 11998 ft 318 kts 211°
2026-05-03 23:21 57.96659 -3.33333 11393 ft 314 kts 212°
2026-05-03 23:22 57.92879 -3.37213 10211 ft 309 kts 212°
2026-05-03 23:22 57.91022 -3.39123 9535 ft 296 kts 212°
2026-05-03 23:22 57.89275 -3.40919 8758 ft 278 kts 212°
2026-05-03 23:23 57.87708 -3.42588 7770 ft 266 kts 211°
2026-05-03 23:23 57.86153 -3.44361 7284 ft 257 kts 214°
2026-05-03 23:23 57.84644 -3.46048 6569 ft 248 kts 217°
2026-05-03 23:23 57.83252 -3.47840 5872 ft 239 kts 216°
2026-05-03 23:24 57.81934 -3.49614 5238 ft 229 kts 224°
2026-05-03 23:24 57.80671 -3.51384 4694 ft 229 kts 212°
2026-05-03 23:24 57.79143 -3.52457 4087 ft 234 kts 200°
2026-05-03 23:24 57.77595 -3.53418 3456 ft 234 kts 202°
2026-05-03 23:25 57.76087 -3.54418 3109 ft 222 kts 202°
2026-05-03 23:25 57.74671 -3.55365 2691 ft 215 kts 202°
2026-05-03 23:25 57.73293 -3.56295 2353 ft 205 kts 201°
2026-05-03 23:25 57.72007 -3.57157 2299 ft 191 kts 202°
2026-05-03 23:26 57.70744 -3.57976 2295 ft 192 kts 193°
2026-05-03 23:26 57.69439 -3.57664 2325 ft 193 kts 160°
2026-05-03 23:26 57.68158 -3.56772 2307 ft 198 kts 161°
2026-05-03 23:26 57.66881 -3.55895 2293 ft 191 kts 161°
2026-05-03 23:27 57.65686 -3.54902 2154 ft 188 kts 146°
2026-05-03 23:27 57.64674 -3.53339 1798 ft 191 kts 136°
2026-05-03 23:27 57.63885 -3.51448 1717 ft 184 kts 113°
2026-05-03 23:27 57.63621 -3.49154 1784 ft 180 kts 87°
2026-05-03 23:28 57.63890 -3.47009 1841 ft 163 kts 61°
2026-05-03 23:28 57.64515 -3.45226 1419 ft 166 kts 50°
2026-05-03 23:28 57.65226 -3.43652 1310 ft 150 kts 46°
2026-05-03 23:28 57.65865 -3.42332 1252 ft 130 kts 44°
2026-05-03 23:29 57.66528 -3.41121 973 ft 137 kts 42°
2026-05-03 23:29 57.67240 -3.39859 825 ft 146 kts 43°
2026-05-03 23:29 57.67967 -3.38577 623 ft 143 kts 43°
2026-05-03 23:29 57.68679 -3.37322 403 ft 138 kts 45°
2026-05-03 23:30 57.69372 -3.36093 205 ft 136 kts 45°
2026-05-03 23:30 57.70015 -3.34949 44 ft 129 kts 45°
2026-05-03 23:30 57.70599 -3.33906 44 ft 93 kts 43°
2026-05-03 23:30 57.70958 -3.33267 42 ft 47 kts 44°
2026-05-03 23:31 57.71103 -3.33008 44 ft 16 kts 43°
2026-05-03 23:31 57.71153 -3.32919 44 ft 14 kts 43°
2026-05-03 23:31 57.71244 -3.32759 44 ft 23 kts 43°
2026-05-03 23:31 57.71371 -3.32551 40 ft 20 kts 27°
2026-05-03 23:32 57.71499 -3.32563 40 ft 17 kts 312°
2026-05-03 23:32 57.71466 -3.32754 43 ft 16 kts 240°
2026-05-03 23:32 57.71408 -3.32921 43 ft 15 kts 234°
2026-05-03 23:32 57.71340 -3.33067 44 ft 14 kts 227°
2026-05-03 23:33 57.71281 -3.33199 44 ft 11 kts 240°
2026-05-03 23:33 57.71296 -3.33268 44 ft 5 kts 312°
2026-05-03 23:33 57.71321 -3.33314 44 ft 5 kts 311°
2026-05-03 23:33 57.71323 -3.33378 44 ft 5 kts 248°
2026-05-03 23:34 57.71292 -3.33397 44 ft 5 kts 166°
2026-05-03 23:34 57.71271 -3.33374 44 ft 0 kts 141°